Time;durP1;ratioP1;P1;durP2;ratioP2;P2;SDS_P1;SDS_P2;PMS_P1;PMS_P2;Temp;Humidity;BMP_temperature;BMP_pressure;BME280_temperature;BME280_humidity;BME280_pressure;Samples;Min_cycle;Max_cycle;Signal;HPM_P1;HPM_P2
2023/06/18 00:00:45;;;;;;;8.48;5.22;;;;;;;;;;5015540;28;20069;-72
2023/06/18 00:03:11;;;;;;;7.55;5.60;;;;;;;;;;5015386;28;20053;-72
2023/06/18 00:05:36;;;;;;;8.50;6.00;;;;;;;;;;5015521;28;20045;-72
2023/06/18 00:08:01;;;;;;;8.07;6.20;;;;;;;;;;5015167;28;20037;-71
2023/06/18 00:10:27;;;;;;;8.98;5.82;;;;;;;;;;5013097;28;20029;-71
2023/06/18 00:12:52;;;;;;;7.47;5.50;;;;;;;;;;5015199;28;20049;-72
2023/06/18 00:15:17;;;;;;;9.98;6.03;;;;;;;;;;5015656;28;20508;-71
2023/06/18 00:17:43;;;;;;;8.30;5.63;;;;;;;;;;5015072;28;20481;-71
2023/06/18 00:20:10;;;;;;;8.57;5.50;;;;;;;;;;5004256;28;20399;-72
2023/06/18 00:22:38;;;;;;;7.97;6.15;;;;;;;;;;5013027;28;20437;-72
2023/06/18 00:25:05;;;;;;;9.02;5.78;;;;;;;;;;5015462;28;20038;-72
2023/06/18 00:27:30;;;;;;;9.25;6.13;;;;;;;;;;5014430;28;20076;-71
2023/06/18 00:29:56;;;;;;;10.05;6.00;;;;;;;;;;5014882;28;20456;-71
2023/06/18 00:32:22;;;;;;;7.47;5.95;;;;;;;;;;5014577;28;20092;-72
2023/06/18 00:34:47;;;;;;;12.02;6.22;;;;;;;;;;5014891;28;20045;-72
2023/06/18 00:37:13;;;;;;;10.73;6.22;;;;;;;;;;5010617;28;20042;-71
2023/06/18 00:39:38;;;;;;;7.75;6.00;;;;;;;;;;5014583;28;20040;-71
2023/06/18 00:42:07;;;;;;;10.57;6.50;;;;;;;;;;5014805;28;20041;-71
2023/06/18 00:44:33;;;;;;;15.32;5.88;;;;;;;;;;5014867;28;20046;-71
2023/06/18 00:46:59;;;;;;;8.77;6.55;;;;;;;;;;5014975;28;20033;-71
2023/06/18 00:49:26;;;;;;;9.23;6.60;;;;;;;;;;4995152;28;20402;-72
2023/06/18 00:51:52;;;;;;;10.85;6.72;;;;;;;;;;5003706;28;20433;-72
2023/06/18 00:54:18;;;;;;;8.95;6.60;;;;;;;;;;5013098;28;20045;-71
2023/06/18 00:56:53;;;;;;;12.93;6.10;;;;;;;;;;5014265;28;20037;-71
2023/06/18 00:59:21;;;;;;;8.60;6.38;;;;;;;;;;5032401;28;20054;-71
2023/06/18 01:01:52;;;;;;;8.93;6.05;;;;;;;;;;5010787;28;20494;-72
2023/06/18 01:04:18;;;;;;;12.15;6.55;;;;;;;;;;5007991;28;20065;-71
2023/06/18 01:06:44;;;;;;;10.65;6.22;;;;;;;;;;5011814;28;20037;-71
2023/06/18 01:09:12;;;;;;;8.60;6.43;;;;;;;;;;5007398;28;20458;-71
2023/06/18 01:11:40;;;;;;;10.27;6.93;;;;;;;;;;5007425;28;20065;-72
2023/06/18 01:14:09;;;;;;;12.90;6.95;;;;;;;;;;5011040;28;20387;-72
2023/06/18 01:16:37;;;;;;;12.85;6.55;;;;;;;;;;5012425;28;20493;-72
2023/06/18 01:19:04;;;;;;;10.95;6.82;;;;;;;;;;5011217;28;20160;-72
2023/06/18 01:21:30;;;;;;;10.70;7.43;;;;;;;;;;5012362;28;20088;-72
2023/06/18 01:24:12;;;;;;;12.77;6.57;;;;;;;;;;5012547;28;20050;-71
2023/06/18 01:26:40;;;;;;;10.45;7.43;;;;;;;;;;5012656;28;20473;-71
2023/06/18 01:29:09;;;;;;;8.85;6.43;;;;;;;;;;5012847;28;20030;-71
2023/06/18 01:31:39;;;;;;;11.07;7.32;;;;;;;;;;5014070;28;20088;-71
2023/06/18 01:34:06;;;;;;;13.63;6.78;;;;;;;;;;5013878;28;20041;-71
2023/06/18 01:36:46;;;;;;;10.43;6.90;;;;;;;;;;5013768;28;20077;-72
2023/06/18 01:39:35;;;;;;;12.55;6.65;;;;;;;;;;5006963;28;20474;-71
2023/06/18 01:42:07;;;;;;;8.93;6.80;;;;;;;;;;5009833;28;20098;-71
2023/06/18 01:44:35;;;;;;;10.40;6.78;;;;;;;;;;5005976;28;20407;-71
2023/06/18 01:47:00;;;;;;;11.07;7.20;;;;;;;;;;5012042;28;20437;-72
2023/06/18 01:49:26;;;;;;;9.52;7.13;;;;;;;;;;5008591;28;20050;-71
2023/06/18 01:51:52;;;;;;;12.68;7.47;;;;;;;;;;5012397;28;20105;-72
2023/06/18 01:54:19;;;;;;;10.68;7.22;;;;;;;;;;5013587;28;20120;-71
2023/06/18 01:56:45;;;;;;;10.25;7.25;;;;;;;;;;5012203;28;20045;-72
2023/06/18 01:59:11;;;;;;;13.93;7.43;;;;;;;;;;5012785;28;20390;-72
2023/06/18 02:01:40;;;;;;;11.07;7.47;;;;;;;;;;5012003;28;20038;-71
2023/06/18 02:04:05;;;;;;;12.30;7.70;;;;;;;;;;5003000;28;20030;-72
2023/06/18 02:06:31;;;;;;;11.90;7.72;;;;;;;;;;5010452;28;20037;-71
2023/06/18 02:08:56;;;;;;;13.20;7.53;;;;;;;;;;5013491;28;20038;-71
2023/06/18 02:11:21;;;;;;;10.52;7.68;;;;;;;;;;5010412;28;20092;-72
2023/06/18 02:13:47;;;;;;;11.60;7.50;;;;;;;;;;5012997;28;20112;-72
2023/06/18 02:16:12;;;;;;;13.27;8.25;;;;;;;;;;5013547;28;20029;-71
2023/06/18 02:18:37;;;;;;;11.18;7.45;;;;;;;;;;5012677;28;20042;-72
2023/06/18 02:21:02;;;;;;;14.13;7.97;;;;;;;;;;5013487;28;20046;-72
2023/06/18 02:23:28;;;;;;;14.15;7.57;;;;;;;;;;5012358;28;20475;-71
2023/06/18 02:25:57;;;;;;;12.35;7.50;;;;;;;;;;5009507;28;20037;-72
2023/06/18 02:28:22;;;;;;;10.10;7.25;;;;;;;;;;5013089;28;20386;-71
2023/06/18 02:30:47;;;;;;;12.30;7.72;;;;;;;;;;4999004;28;20026;-71
2023/06/18 02:33:16;;;;;;;13.27;7.85;;;;;;;;;;5013253;28;20042;-72
2023/06/18 02:35:41;;;;;;;12.55;8.13;;;;;;;;;;5012318;28;20049;-72
2023/06/18 02:38:07;;;;;;;15.20;8.63;;;;;;;;;;5013369;28;20394;-72
2023/06/18 02:40:32;;;;;;;12.63;9.10;;;;;;;;;;5012878;28;20466;-72
2023/06/18 02:42:58;;;;;;;14.43;9.10;;;;;;;;;;5012912;28;20520;-71
2023/06/18 02:45:25;;;;;;;15.35;9.07;;;;;;;;;;5013385;28;20499;-71
2023/06/18 02:47:51;;;;;;;13.95;8.68;;;;;;;;;;5012686;28;20042;-72
2023/06/18 02:50:18;;;;;;;11.48;8.10;;;;;;;;;;5011462;28;20096;-72
2023/06/18 02:52:45;;;;;;;11.88;8.63;;;;;;;;;;5011363;28;20032;-71
2023/06/18 02:55:11;;;;;;;13.75;8.38;;;;;;;;;;5011977;28;20084;-72
2023/06/18 02:57:38;;;;;;;14.57;8.73;;;;;;;;;;5012352;28;20569;-71
2023/06/18 03:00:09;;;;;;;11.63;8.43;;;;;;;;;;5011534;28;20429;-72
2023/06/18 03:02:34;;;;;;;11.10;7.55;;;;;;;;;;5010359;28;20100;-72
2023/06/18 03:04:59;;;;;;;12.00;8.15;;;;;;;;;;5005509;28;20037;-72
2023/06/18 03:07:25;;;;;;;14.52;7.90;;;;;;;;;;5012652;28;20038;-72
2023/06/18 03:09:50;;;;;;;12.07;8.30;;;;;;;;;;5004445;28;20080;-72
2023/06/18 03:12:15;;;;;;;11.45;8.27;;;;;;;;;;5012799;28;20046;-72
2023/06/18 03:14:41;;;;;;;12.82;8.27;;;;;;;;;;5013003;28;20042;-71
2023/06/18 03:17:06;;;;;;;12.30;8.15;;;;;;;;;;5013257;28;20065;-71
2023/06/18 03:19:31;;;;;;;12.80;7.55;;;;;;;;;;5016394;28;20037;-71
2023/06/18 03:21:57;;;;;;;9.82;7.57;;;;;;;;;;5016395;28;20420;-71
2023/06/18 03:24:22;;;;;;;10.90;7.78;;;;;;;;;;5016215;28;20075;-71
2023/06/18 03:26:48;;;;;;;11.45;8.07;;;;;;;;;;5016281;28;20030;-72
2023/06/18 03:29:14;;;;;;;12.40;8.10;;;;;;;;;;5014931;28;20049;-71
2023/06/18 03:31:40;;;;;;;13.20;7.57;;;;;;;;;;5015596;28;20466;-72
2023/06/18 03:34:07;;;;;;;10.70;7.95;;;;;;;;;;5016277;28;20473;-71
2023/06/18 03:36:41;;;;;;;12.20;7.38;;;;;;;;;;5015044;28;20033;-72
2023/06/18 03:39:09;;;;;;;12.30;8.30;;;;;;;;;;5009472;28;20041;-72
2023/06/18 03:41:34;;;;;;;9.25;7.22;;;;;;;;;;5014675;28;20041;-72
2023/06/18 03:44:00;;;;;;;12.15;7.43;;;;;;;;;;5016121;28;20045;-72
2023/06/18 03:46:25;;;;;;;13.30;8.43;;;;;;;;;;5015378;28;20026;-72
2023/06/18 03:48:51;;;;;;;10.20;7.93;;;;;;;;;;5014212;28;20096;-72
2023/06/18 03:51:16;;;;;;;12.63;7.70;;;;;;;;;;5014965;28;20044;-72
2023/06/18 03:53:42;;;;;;;11.63;7.35;;;;;;;;;;5014677;28;20129;-72
2023/06/18 03:56:08;;;;;;;12.25;8.10;;;;;;;;;;5015691;28;20022;-72
2023/06/18 03:58:33;;;;;;;12.38;7.68;;;;;;;;;;5015358;28;20514;-72
2023/06/18 04:00:59;;;;;;;14.50;7.88;;;;;;;;;;5015912;28;20073;-72
2023/06/18 04:03:24;;;;;;;12.27;7.18;;;;;;;;;;5014843;28;20041;-72
2023/06/18 04:05:50;;;;;;;10.38;7.47;;;;;;;;;;5014493;28;20041;-71
2023/06/18 04:08:16;;;;;;;13.15;7.60;;;;;;;;;;5013861;28;20432;-72
2023/06/18 04:10:43;;;;;;;12.95;7.07;;;;;;;;;;5014505;28;20565;-71
2023/06/18 04:13:08;;;;;;;11.43;7.47;;;;;;;;;;5015220;28;20048;-71
2023/06/18 04:15:34;;;;;;;9.70;6.85;;;;;;;;;;5014463;28;20034;-71
2023/06/18 04:17:59;;;;;;;10.88;7.68;;;;;;;;;;5013302;28;20443;-72
2023/06/18 04:20:25;;;;;;;9.45;6.88;;;;;;;;;;5011886;28;20050;-72
2023/06/18 04:22:50;;;;;;;11.68;7.78;;;;;;;;;;5010521;28;20026;-72
2023/06/18 04:25:15;;;;;;;14.07;7.25;;;;;;;;;;5012766;28;20037;-72
2023/06/18 04:27:42;;;;;;;11.23;7.65;;;;;;;;;;5014763;28;20034;-72
2023/06/18 04:30:08;;;;;;;9.80;7.35;;;;;;;;;;5012441;28;20042;-72
2023/06/18 04:32:33;;;;;;;10.90;7.53;;;;;;;;;;5014924;28;20164;-72
2023/06/18 04:34:58;;;;;;;9.43;7.20;;;;;;;;;;5014786;28;20045;-72
2023/06/18 04:37:24;;;;;;;11.15;6.80;;;;;;;;;;5009725;28;20041;-72
2023/06/18 04:39:49;;;;;;;8.88;6.47;;;;;;;;;;5014270;28;20042;-72
2023/06/18 04:42:15;;;;;;;9.10;6.43;;;;;;;;;;5014497;28;20145;-72
2023/06/18 04:44:41;;;;;;;12.57;6.50;;;;;;;;;;5013213;28;20480;-72
2023/06/18 04:47:07;;;;;;;8.93;6.55;;;;;;;;;;5014635;28;20041;-72
2023/06/18 04:49:32;;;;;;;11.30;6.28;;;;;;;;;;5013628;28;20073;-72
2023/06/18 04:51:57;;;;;;;8.43;6.32;;;;;;;;;;5011356;28;20034;-72
2023/06/18 04:54:23;;;;;;;8.10;5.93;;;;;;;;;;5014775;28;20458;-72
2023/06/18 04:56:48;;;;;;;7.07;5.20;;;;;;;;;;5014273;28;20056;-72
2023/06/18 04:59:13;;;;;;;7.57;5.93;;;;;;;;;;5014327;28;20060;-72
2023/06/18 05:01:39;;;;;;;8.55;5.03;;;;;;;;;;5003953;28;20040;-72
2023/06/18 05:04:04;;;;;;;6.93;5.60;;;;;;;;;;5014507;28;20065;-72
2023/06/18 05:06:30;;;;;;;7.93;5.85;;;;;;;;;;5014474;28;20029;-72
2023/06/18 05:08:55;;;;;;;8.90;5.50;;;;;;;;;;5013051;28;20026;-72
2023/06/18 05:11:20;;;;;;;7.55;4.88;;;;;;;;;;5008144;28;20552;-72
2023/06/18 05:13:46;;;;;;;9.55;5.10;;;;;;;;;;5014388;28;20045;-72
2023/06/18 05:16:11;;;;;;;7.55;5.15;;;;;;;;;;5014494;28;20030;-72
2023/06/18 05:18:38;;;;;;;6.75;5.10;;;;;;;;;;5013991;28;20056;-72
2023/06/18 05:21:03;;;;;;;7.32;5.10;;;;;;;;;;5014290;28;20030;-72
2023/06/18 05:23:29;;;;;;;6.70;4.53;;;;;;;;;;5013827;28;20049;-72
2023/06/18 05:25:54;;;;;;;7.28;4.90;;;;;;;;;;5014313;28;20034;-72
2023/06/18 05:28:20;;;;;;;7.07;4.95;;;;;;;;;;5013989;28;20034;-71
2023/06/18 05:30:46;;;;;;;9.45;5.20;;;;;;;;;;5013761;28;20092;-72
2023/06/18 05:33:12;;;;;;;7.75;5.18;;;;;;;;;;5013911;28;20057;-72
2023/06/18 05:35:38;;;;;;;8.82;5.80;;;;;;;;;;5012871;28;20040;-72
2023/06/18 05:38:03;;;;;;;8.05;5.47;;;;;;;;;;5014039;28;20034;-72
2023/06/18 05:40:28;;;;;;;7.75;5.32;;;;;;;;;;5013173;28;20045;-72
2023/06/18 05:42:54;;;;;;;6.97;4.90;;;;;;;;;;5013330;28;20033;-72
2023/06/18 05:45:19;;;;;;;9.00;5.18;;;;;;;;;;5012573;28;20026;-72
2023/06/18 05:47:44;;;;;;;8.65;5.45;;;;;;;;;;5013457;28;20445;-72
2023/06/18 05:50:10;;;;;;;6.85;5.10;;;;;;;;;;5009657;28;20045;-72
2023/06/18 05:52:35;;;;;;;6.35;5.05;;;;;;;;;;5012985;28;20112;-72
2023/06/18 05:55:01;;;;;;;7.47;4.93;;;;;;;;;;5013711;28;20493;-72
2023/06/18 05:57:27;;;;;;;7.07;4.80;;;;;;;;;;5013335;28;20030;-72
2023/06/18 05:59:52;;;;;;;6.57;4.78;;;;;;;;;;5013205;28;20049;-72
2023/06/18 06:02:18;;;;;;;8.50;4.57;;;;;;;;;;5011940;28;20038;-72
2023/06/18 06:04:43;;;;;;;8.30;4.82;;;;;;;;;;5013073;28;20117;-72
2023/06/18 06:07:09;;;;;;;6.18;4.55;;;;;;;;;;5000201;28;20101;-72
2023/06/18 06:09:35;;;;;;;7.97;4.93;;;;;;;;;;5013682;28;20067;-72
2023/06/18 06:12:00;;;;;;;8.35;4.45;;;;;;;;;;5010252;28;20132;-72
2023/06/18 06:14:25;;;;;;;7.20;4.18;;;;;;;;;;5013551;28;20076;-72
2023/06/18 06:16:57;;;;;;;5.43;3.88;;;;;;;;;;5012978;28;20073;-72
2023/06/18 06:19:22;;;;;;;5.35;3.72;;;;;;;;;;5013383;28;20029;-72
2023/06/18 06:21:47;;;;;;;5.40;3.67;;;;;;;;;;5012915;28;20545;-72
2023/06/18 06:24:13;;;;;;;5.15;3.50;;;;;;;;;;5012961;28;20053;-72
2023/06/18 06:26:38;;;;;;;6.38;4.00;;;;;;;;;;5013120;28;20026;-72
2023/06/18 06:29:03;;;;;;;6.30;4.05;;;;;;;;;;5013256;28;20033;-72
2023/06/18 06:31:29;;;;;;;4.82;3.65;;;;;;;;;;5013212;28;20049;-72
2023/06/18 06:33:55;;;;;;;7.90;3.65;;;;;;;;;;5013038;28;20029;-72
2023/06/18 06:36:20;;;;;;;7.60;4.25;;;;;;;;;;5011776;28;20022;-72
2023/06/18 06:38:45;;;;;;;6.28;4.53;;;;;;;;;;5010908;28;20038;-72
2023/06/18 06:41:11;;;;;;;8.85;5.07;;;;;;;;;;5008122;28;20041;-72
2023/06/18 06:43:36;;;;;;;8.45;5.00;;;;;;;;;;5012811;28;20085;-72
2023/06/18 06:46:01;;;;;;;9.55;4.93;;;;;;;;;;5013335;28;20117;-72
2023/06/18 06:48:27;;;;;;;9.43;4.82;;;;;;;;;;5010818;28;20076;-72
2023/06/18 06:50:53;;;;;;;5.80;4.13;;;;;;;;;;5013210;28;20038;-72
2023/06/18 06:53:18;;;;;;;6.68;4.70;;;;;;;;;;5016839;28;20049;-72
2023/06/18 06:55:43;;;;;;;6.38;5.05;;;;;;;;;;5016657;28;20417;-72
2023/06/18 06:58:09;;;;;;;6.20;3.92;;;;;;;;;;5016845;28;20466;-72
2023/06/18 07:00:34;;;;;;;7.20;5.00;;;;;;;;;;5015349;28;20037;-72
2023/06/18 07:02:59;;;;;;;6.72;5.03;;;;;;;;;;5014704;28;20054;-72
2023/06/18 07:05:25;;;;;;;6.22;4.55;;;;;;;;;;5014467;28;20073;-72
2023/06/18 07:07:51;;;;;;;6.22;5.00;;;;;;;;;;5013403;28;20030;-72
2023/06/18 07:10:16;;;;;;;6.00;4.60;;;;;;;;;;5016626;28;20061;-72
2023/06/18 07:12:42;;;;;;;8.57;5.35;;;;;;;;;;5016707;28;20034;-72
2023/06/18 07:15:07;;;;;;;8.02;5.22;;;;;;;;;;5015129;28;20088;-72
2023/06/18 07:17:33;;;;;;;9.98;5.30;;;;;;;;;;5016654;28;20470;-72
2023/06/18 07:19:58;;;;;;;9.25;6.18;;;;;;;;;;5016523;28;20026;-72
2023/06/18 07:22:23;;;;;;;11.77;5.90;;;;;;;;;;5016699;28;20046;-72
2023/06/18 07:24:49;;;;;;;8.35;6.22;;;;;;;;;;5016151;28;20037;-73
2023/06/18 07:27:14;;;;;;;9.98;7.20;;;;;;;;;;5014287;28;20034;-70
2023/06/18 07:29:40;;;;;;;10.85;6.68;;;;;;;;;;5016248;28;20456;-70
2023/06/18 07:32:06;;;;;;;12.98;7.40;;;;;;;;;;5007594;28;20033;-73
2023/06/18 07:34:31;;;;;;;12.02;8.02;;;;;;;;;;5014469;28;20397;-73
2023/06/18 07:36:57;;;;;;;13.23;8.30;;;;;;;;;;5013039;28;20920;-72
2023/06/18 07:39:22;;;;;;;11.35;8.02;;;;;;;;;;5013630;28;20029;-72
2023/06/18 07:41:49;;;;;;;15.15;8.80;;;;;;;;;;5012983;28;20038;-72
2023/06/18 07:44:14;;;;;;;10.73;8.80;;;;;;;;;;5014081;28;20046;-72
2023/06/18 07:46:42;;;;;;;14.63;9.15;;;;;;;;;;5012561;28;20026;-72
2023/06/18 07:49:07;;;;;;;14.82;9.32;;;;;;;;;;5013109;28;20112;-72
2023/06/18 07:51:33;;;;;;;18.38;10.05;;;;;;;;;;5012671;28;20577;-72
2023/06/18 07:53:58;;;;;;;14.05;9.02;;;;;;;;;;5013794;28;20033;-72
2023/06/18 07:56:26;;;;;;;12.63;9.43;;;;;;;;;;5013781;28;20061;-72
2023/06/18 07:58:52;;;;;;;18.30;10.20;;;;;;;;;;5013747;28;20083;-72
2023/06/18 08:01:18;;;;;;;12.45;9.27;;;;;;;;;;5012673;28;20049;-72
2023/06/18 08:03:44;;;;;;;14.98;10.27;;;;;;;;;;5014105;28;20083;-72
2023/06/18 08:06:09;;;;;;;30.60;11.70;;;;;;;;;;5014559;28;20112;-72
2023/06/18 08:08:35;;;;;;;14.98;10.30;;;;;;;;;;5015760;28;20455;-72
2023/06/18 08:11:00;;;;;;;13.45;9.18;;;;;;;;;;5015568;28;20022;-73
2023/06/18 08:13:25;;;;;;;18.45;8.90;;;;;;;;;;5015734;28;20042;-72
2023/06/18 08:15:51;;;;;;;13.38;9.60;;;;;;;;;;5014104;28;20062;-72
2023/06/18 08:18:16;;;;;;;13.70;9.30;;;;;;;;;;5014290;28;20034;-72
2023/06/18 08:20:41;;;;;;;14.50;9.57;;;;;;;;;;5015522;28;20037;-72
2023/06/18 08:23:07;;;;;;;11.80;8.82;;;;;;;;;;5015063;28;20030;-72
2023/06/18 08:25:32;;;;;;;15.68;8.88;;;;;;;;;;5013771;28;20107;-72
2023/06/18 08:27:58;;;;;;;13.55;8.93;;;;;;;;;;5013957;28;20115;-72
2023/06/18 08:30:24;;;;;;;16.60;8.40;;;;;;;;;;5015311;28;20039;-72
2023/06/18 08:32:50;;;;;;;15.25;9.32;;;;;;;;;;5015048;28;20040;-72
2023/06/18 08:35:15;;;;;;;12.95;8.45;;;;;;;;;;5013963;28;20045;-72
2023/06/18 08:37:40;;;;;;;14.75;7.97;;;;;;;;;;5015274;28;20041;-72
2023/06/18 08:40:07;;;;;;;11.15;8.30;;;;;;;;;;5013921;28;20026;-72
2023/06/18 08:42:32;;;;;;;11.98;9.25;;;;;;;;;;5013847;28;20033;-72
2023/06/18 08:44:58;;;;;;;17.08;9.63;;;;;;;;;;5013849;28;20080;-72
2023/06/18 08:47:27;;;;;;;12.35;9.00;;;;;;;;;;5014905;28;20041;-73
2023/06/18 08:49:57;;;;;;;15.85;8.70;;;;;;;;;;5013462;28;20038;-72
2023/06/18 08:52:23;;;;;;;12.63;8.75;;;;;;;;;;5005417;28;20037;-72
2023/06/18 08:54:53;;;;;;;11.65;8.55;;;;;;;;;;5014723;28;20414;-72
2023/06/18 08:57:31;;;;;;;12.00;9.32;;;;;;;;;;5013415;28;20042;-72
2023/06/18 08:59:59;;;;;;;12.45;9.15;;;;;;;;;;5014466;28;20128;-72
2023/06/18 09:02:25;;;;;;;12.32;9.07;;;;;;;;;;5013497;28;20375;-72
2023/06/18 09:04:51;;;;;;;12.95;7.90;;;;;;;;;;5012857;28;20437;-72
2023/06/18 09:07:17;;;;;;;11.15;8.70;;;;;;;;;;5002457;28;20030;-72
2023/06/18 09:09:43;;;;;;;12.50;8.82;;;;;;;;;;5014468;28;20037;-72
2023/06/18 09:12:08;;;;;;;11.02;8.70;;;;;;;;;;5014186;28;20413;-72
2023/06/18 09:14:34;;;;;;;13.02;9.27;;;;;;;;;;5014343;28;20044;-72
2023/06/18 09:16:59;;;;;;;13.98;8.52;;;;;;;;;;5014202;28;20041;-72
2023/06/18 09:19:24;;;;;;;12.95;9.05;;;;;;;;;;5014233;28;20478;-72
2023/06/18 09:21:51;;;;;;;11.68;8.40;;;;;;;;;;5012765;28;20036;-72
2023/06/18 09:24:22;;;;;;;12.13;8.32;;;;;;;;;;5012594;28;20065;-72
2023/06/18 09:26:49;;;;;;;13.80;7.75;;;;;;;;;;5014096;28;20500;-72
2023/06/18 09:29:15;;;;;;;9.38;7.70;;;;;;;;;;5014122;28;20040;-72
2023/06/18 09:31:44;;;;;;;12.73;8.23;;;;;;;;;;5013552;28;20429;-72
2023/06/18 09:34:19;;;;;;;14.60;9.02;;;;;;;;;;5008824;28;20076;-72
2023/06/18 09:36:47;;;;;;;10.70;8.05;;;;;;;;;;5013806;28;20053;-71
2023/06/18 09:39:16;;;;;;;11.45;8.27;;;;;;;;;;5013715;28;20033;-70
2023/06/18 09:41:43;;;;;;;12.57;7.05;;;;;;;;;;5012364;28;20044;-70
2023/06/18 09:44:09;;;;;;;9.75;7.05;;;;;;;;;;5010405;28;20036;-71
2023/06/18 09:46:34;;;;;;;13.70;7.45;;;;;;;;;;5013371;28;20053;-70
2023/06/18 09:49:00;;;;;;;14.55;8.82;;;;;;;;;;5013326;28;20038;-71
2023/06/18 09:51:25;;;;;;;15.60;8.88;;;;;;;;;;5012453;28;20042;-70
2023/06/18 09:53:55;;;;;;;14.43;8.52;;;;;;;;;;5013342;28;20076;-71
2023/06/18 09:56:21;;;;;;;15.88;8.20;;;;;;;;;;5012223;28;20029;-71
2023/06/18 09:58:48;;;;;;;11.65;7.85;;;;;;;;;;5013322;28;20041;-71
2023/06/18 10:01:17;;;;;;;11.43;6.97;;;;;;;;;;5010729;28;20107;-70
2023/06/18 10:03:43;;;;;;;13.60;7.43;;;;;;;;;;5012600;28;20092;-71
2023/06/18 10:06:17;;;;;;;12.80;8.98;;;;;;;;;;5012347;28;20057;-71
2023/06/18 10:08:45;;;;;;;11.98;8.38;;;;;;;;;;5011532;28;20049;-70
2023/06/18 10:11:11;;;;;;;12.02;7.95;;;;;;;;;;5012413;28;20030;-71
2023/06/18 10:13:58;;;;;;;11.60;8.38;;;;;;;;;;5013117;28;20037;-70
2023/06/18 10:16:26;;;;;;;17.13;7.93;;;;;;;;;;5006731;28;20041;-71
2023/06/18 10:19:07;;;;;;;27.35;9.95;;;;;;;;;;5011995;28;20100;-71
2023/06/18 10:21:53;;;;;;;9.57;7.28;;;;;;;;;;5013548;28;20048;-71
2023/06/18 10:24:21;;;;;;;12.85;6.95;;;;;;;;;;5012335;28;20046;-71
2023/06/18 10:26:47;;;;;;;10.90;7.15;;;;;;;;;;5011651;28;20042;-71
2023/06/18 10:29:12;;;;;;;10.98;7.43;;;;;;;;;;5006410;28;20048;-71
2023/06/18 10:31:38;;;;;;;15.05;7.88;;;;;;;;;;5009685;28;20038;-71
2023/06/18 10:34:05;;;;;;;11.15;6.60;;;;;;;;;;5011596;28;20497;-70
2023/06/18 10:36:30;;;;;;;9.60;6.30;;;;;;;;;;5011579;28;20065;-70
2023/06/18 10:38:56;;;;;;;9.55;6.43;;;;;;;;;;5011733;28;20470;-71
2023/06/18 10:41:22;;;;;;;13.27;7.03;;;;;;;;;;5010924;28;20092;-71
2023/06/18 10:43:52;;;;;;;9.82;6.70;;;;;;;;;;5010592;28;20029;-71
2023/06/18 10:46:18;;;;;;;9.48;6.75;;;;;;;;;;5007159;28;20058;-70
2023/06/18 10:49:20;;;;;;;7.35;5.70;;;;;;;;;;5007451;28;20493;-71
2023/06/18 10:51:57;;;;;;;10.25;6.65;;;;;;;;;;5010117;28;20050;-70
2023/06/18 10:54:23;;;;;;;9.52;7.65;;;;;;;;;;5008368;28;20104;-70
2023/06/18 10:56:55;;;;;;;10.65;6.30;;;;;;;;;;5012943;28;20041;-70
2023/06/18 10:59:33;;;;;;;11.30;6.70;;;;;;;;;;5011016;28;20046;-71
2023/06/18 11:01:59;;;;;;;13.13;6.15;;;;;;;;;;5010746;28;20037;-73
2023/06/18 11:04:30;;;;;;;8.30;5.20;;;;;;;;;;5012431;28;20034;-70
2023/06/18 11:07:15;;;;;;;9.32;6.70;;;;;;;;;;5040964;28;20843;-70
2023/06/18 11:09:49;;;;;;;9.52;7.18;;;;;;;;;;5008736;28;20045;-71
2023/06/18 11:12:22;;;;;;;8.93;6.78;;;;;;;;;;5011921;28;20041;-71
2023/06/18 11:15:06;;;;;;;10.23;6.45;;;;;;;;;;5012092;28;20034;-71
2023/06/18 11:17:34;;;;;;;12.80;7.40;;;;;;;;;;5004222;28;20034;-70
2023/06/18 11:20:01;;;;;;;9.73;7.13;;;;;;;;;;5012967;28;20100;-71
2023/06/18 11:22:30;;;;;;;10.88;6.88;;;;;;;;;;5011329;28;20076;-71
2023/06/18 11:25:00;;;;;;;9.70;6.80;;;;;;;;;;5011640;28;20049;-71
2023/06/18 11:27:26;;;;;;;8.73;6.50;;;;;;;;;;5012959;28;20124;-71
2023/06/18 11:29:56;;;;;;;8.75;6.57;;;;;;;;;;5011255;28;20363;-71
2023/06/18 11:32:23;;;;;;;8.73;6.18;;;;;;;;;;5012741;28;20042;-71
2023/06/18 11:34:49;;;;;;;9.70;6.72;;;;;;;;;;5011513;28;20034;-71
2023/06/18 11:37:15;;;;;;;12.10;7.60;;;;;;;;;;5011252;28;20048;-71
2023/06/18 11:39:41;;;;;;;10.85;6.60;;;;;;;;;;5015007;28;20034;-71
2023/06/18 11:42:18;;;;;;;8.93;6.80;;;;;;;;;;5010271;28;20413;-71
2023/06/18 11:44:49;;;;;;;9.65;6.97;;;;;;;;;;5015962;28;20048;-71
2023/06/18 11:47:15;;;;;;;8.45;6.28;;;;;;;;;;5015839;28;20120;-71
2023/06/18 11:49:45;;;;;;;13.02;6.50;;;;;;;;;;5014664;28;20113;-71
2023/06/18 11:52:18;;;;;;;12.57;6.93;;;;;;;;;;5015596;28;20042;-71
2023/06/18 11:54:44;;;;;;;10.57;6.32;;;;;;;;;;5012274;28;20541;-71
2023/06/18 11:57:12;;;;;;;10.85;6.65;;;;;;;;;;5012877;28;20476;-70
2023/06/18 11:59:41;;;;;;;9.50;6.55;;;;;;;;;;5014029;28;20050;-70
2023/06/18 12:02:16;;;;;;;15.50;8.40;;;;;;;;;;5013997;28;20386;-71
2023/06/18 12:04:43;;;;;;;12.25;6.30;;;;;;;;;;5008240;28;20047;-71
2023/06/18 12:07:29;;;;;;;11.02;6.43;;;;;;;;;;5013808;28;20478;-71
2023/06/18 12:09:58;;;;;;;7.50;6.30;;;;;;;;;;5007723;28;20092;-71
2023/06/18 12:12:35;;;;;;;10.40;6.90;;;;;;;;;;5013491;28;20034;-71
2023/06/18 12:15:40;;;;;;;11.45;6.03;;;;;;;;;;5008224;28;20089;-70
2023/06/18 12:18:17;;;;;;;10.10;6.65;;;;;;;;;;5007782;28;20100;-71
2023/06/18 12:20:42;;;;;;;8.75;6.20;;;;;;;;;;5007400;28;20034;-71
2023/06/18 12:23:08;;;;;;;9.13;6.70;;;;;;;;;;5012557;28;20511;-71
2023/06/18 12:25:33;;;;;;;10.13;6.72;;;;;;;;;;5013741;28;20057;-70
2023/06/18 12:28:02;;;;;;;8.93;6.70;;;;;;;;;;5013271;28;20029;-70
2023/06/18 12:30:32;;;;;;;9.15;5.85;;;;;;;;;;5014906;28;20037;-71
2023/06/18 12:33:06;;;;;;;12.15;7.00;;;;;;;;;;5014152;28;20478;-71
2023/06/18 12:35:32;;;;;;;9.10;6.85;;;;;;;;;;5013918;28;20506;-71
2023/06/18 12:38:05;;;;;;;12.15;7.47;;;;;;;;;;5013293;28;20029;-71
2023/06/18 12:40:32;;;;;;;8.70;6.10;;;;;;;;;;5013580;28;20125;-71
2023/06/18 12:42:59;;;;;;;13.25;6.55;;;;;;;;;;5013575;28;20109;-71
2023/06/18 12:45:26;;;;;;;9.32;6.30;;;;;;;;;;5013180;28;20029;-71
2023/06/18 12:47:52;;;;;;;11.60;7.15;;;;;;;;;;5013307;28;20055;-71
2023/06/18 12:50:24;;;;;;;10.80;6.88;;;;;;;;;;5012405;28;20454;-71
2023/06/18 12:52:49;;;;;;;13.35;6.80;;;;;;;;;;5012097;28;20045;-71
2023/06/18 12:55:16;;;;;;;11.18;6.97;;;;;;;;;;5012027;28;20042;-71
2023/06/18 12:57:48;;;;;;;9.45;6.80;;;;;;;;;;5011856;28;20042;-71
2023/06/18 13:00:23;;;;;;;10.82;5.45;;;;;;;;;;5013530;28;20037;-71
2023/06/18 13:02:50;;;;;;;7.63;5.28;;;;;;;;;;5012429;28;20033;-70
2023/06/18 13:05:16;;;;;;;10.80;6.80;;;;;;;;;;5013395;28;20034;-71
2023/06/18 13:07:50;;;;;;;8.68;6.35;;;;;;;;;;5013392;28;20096;-71
2023/06/18 13:10:15;;;;;;;8.43;6.85;;;;;;;;;;5005121;28;20050;-71
2023/06/18 13:12:42;;;;;;;8.80;6.90;;;;;;;;;;4998405;28;20040;-71
2023/06/18 13:15:08;;;;;;;11.38;6.70;;;;;;;;;;5013374;28;20057;-71
2023/06/18 13:17:34;;;;;;;10.98;6.78;;;;;;;;;;5013936;28;20498;-71
2023/06/18 13:20:00;;;;;;;9.48;6.88;;;;;;;;;;5012130;28;20041;-71
2023/06/18 13:22:25;;;;;;;8.65;6.25;;;;;;;;;;5012703;28;20113;-71
2023/06/18 13:24:52;;;;;;;8.45;6.13;;;;;;;;;;5007439;28;20064;-71
2023/06/18 13:27:17;;;;;;;7.70;6.28;;;;;;;;;;5013747;28;20080;-71
2023/06/18 13:29:42;;;;;;;10.50;6.13;;;;;;;;;;5012733;28;20029;-71
2023/06/18 13:32:09;;;;;;;10.13;6.88;;;;;;;;;;5013803;28;20044;-71
2023/06/18 13:34:34;;;;;;;8.88;6.25;;;;;;;;;;5014126;28;20042;-71
2023/06/18 13:36:59;;;;;;;8.52;6.40;;;;;;;;;;5013392;28;20368;-71
2023/06/18 13:39:25;;;;;;;11.38;6.90;;;;;;;;;;5014154;28;20033;-71
2023/06/18 13:41:50;;;;;;;8.93;6.70;;;;;;;;;;5010553;28;20460;-71
2023/06/18 13:44:16;;;;;;;9.70;6.70;;;;;;;;;;5013155;28;20065;-71
2023/06/18 13:46:42;;;;;;;12.80;6.32;;;;;;;;;;5013164;28;20552;-71
2023/06/18 13:49:07;;;;;;;8.40;6.28;;;;;;;;;;5013491;28;20077;-70
2023/06/18 13:51:32;;;;;;;10.35;6.60;;;;;;;;;;5009843;28;20030;-70
2023/06/18 13:53:58;;;;;;;13.82;7.10;;;;;;;;;;5013322;28;20044;-71
2023/06/18 13:56:24;;;;;;;11.45;6.95;;;;;;;;;;5013899;28;20497;-70
2023/06/18 13:58:50;;;;;;;12.45;6.35;;;;;;;;;;5013453;28;20042;-71
2023/06/18 14:01:15;;;;;;;16.75;7.20;;;;;;;;;;5010205;28;20038;-70
2023/06/18 14:03:40;;;;;;;10.18;6.65;;;;;;;;;;5006319;28;20056;-70
2023/06/18 14:06:06;;;;;;;12.48;6.50;;;;;;;;;;5013822;28;20109;-71
2023/06/18 14:08:32;;;;;;;17.30;7.88;;;;;;;;;;5013576;28;20050;-71
2023/06/18 14:10:57;;;;;;;8.88;6.25;;;;;;;;;;5011248;28;20105;-71
2023/06/18 14:13:22;;;;;;;10.98;5.80;;;;;;;;;;5012872;28;21194;-70
2023/06/18 14:15:48;;;;;;;14.80;7.63;;;;;;;;;;5013168;28;20041;-71
2023/06/18 14:18:13;;;;;;;9.65;6.43;;;;;;;;;;5013477;28;20049;-71
2023/06/18 14:20:38;;;;;;;10.75;6.97;;;;;;;;;;5013286;28;20026;-71
2023/06/18 14:23:04;;;;;;;13.73;7.47;;;;;;;;;;5013020;28;20133;-71
2023/06/18 14:25:29;;;;;;;14.27;7.97;;;;;;;;;;5013235;28;20381;-71
2023/06/18 14:27:55;;;;;;;12.18;7.60;;;;;;;;;;5006235;28;20401;-71
2023/06/18 14:30:20;;;;;;;10.60;6.40;;;;;;;;;;5013458;28;20108;-71
2023/06/18 14:32:45;;;;;;;10.85;6.63;;;;;;;;;;5012073;28;20041;-71
2023/06/18 14:35:11;;;;;;;10.77;7.00;;;;;;;;;;5012000;28;20045;-70